Time;durP1;ratioP1;P1;durP2;ratioP2;P2;SDS_P1;SDS_P2;PMS_P1;PMS_P2;Temp;Humidity;BMP_temperature;BMP_pressure;BME280_temperature;BME280_humidity;BME280_pressure;Samples;Min_cycle;Max_cycle;Signal;HPM_P1;HPM_P2
2022/05/20 00:01:07;;;;;;;0.40;0.40;;;;;;;;;;6190487;23;20172;-85
2022/05/20 00:03:36;;;;;;;0.90;0.90;;;;;;;;;;6217157;23;20197;-85
2022/05/20 00:06:06;;;;;;;0.67;0.67;;;;;;;;;;6190380;23;20173;-85
2022/05/20 00:08:34;;;;;;;0.40;0.40;;;;;;;;;;6190913;23;20204;-85
2022/05/20 00:11:03;;;;;;;2.60;2.50;;;;;;;;;;6190506;23;20184;-85
2022/05/20 00:13:31;;;;;;;6.40;4.83;;;;;;;;;;6190656;23;20230;-85
2022/05/20 00:16:00;;;;;;;1.80;1.70;;;;;;;;;;6216537;23;20193;-86
2022/05/20 00:18:29;;;;;;;7.83;1.93;;;;;;;;;;6217085;23;20206;-86
2022/05/20 00:20:59;;;;;;;1.37;0.83;;;;;;;;;;6216922;23;20172;-86
2022/05/20 00:23:28;;;;;;;0.50;0.50;;;;;;;;;;6190882;23;20214;-86
2022/05/20 00:25:57;;;;;;;0.93;0.93;;;;;;;;;;6215228;23;20204;-86
2022/05/20 00:28:27;;;;;;;1.27;1.27;;;;;;;;;;6190948;23;20205;-86
2022/05/20 00:30:57;;;;;;;1.27;1.27;;;;;;;;;;6189916;23;20188;-87
2022/05/20 00:33:26;;;;;;;0.63;0.63;;;;;;;;;;6216893;23;20173;-86
2022/05/20 00:35:55;;;;;;;0.40;0.40;;;;;;;;;;6190026;23;20197;-86
2022/05/20 00:38:31;;;;;;;0.47;0.47;;;;;;;;;;6190138;23;20184;-86
2022/05/20 00:41:01;;;;;;;1.27;1.27;;;;;;;;;;6192228;23;20187;-86
2022/05/20 00:43:36;;;;;;;0.50;0.50;;;;;;;;;;6192615;23;20176;-86
2022/05/20 00:46:06;;;;;;;0.70;0.70;;;;;;;;;;6192073;23;20177;-86
2022/05/20 00:48:34;;;;;;;1.97;1.73;;;;;;;;;;6218480;23;20204;-86
2022/05/20 00:51:10;;;;;;;1.27;1.27;;;;;;;;;;6218450;23;20173;-86
2022/05/20 00:53:41;;;;;;;0.40;0.40;;;;;;;;;;6192255;23;20175;-86
2022/05/20 00:56:13;;;;;;;0.40;0.40;;;;;;;;;;6191710;23;20193;-86
2022/05/20 00:58:42;;;;;;;0.70;0.70;;;;;;;;;;6218613;23;20178;-86
2022/05/20 01:01:11;;;;;;;0.50;0.50;;;;;;;;;;6192325;23;20226;-86
2022/05/20 01:03:40;;;;;;;0.70;0.70;;;;;;;;;;6218869;23;20221;-86
2022/05/20 01:06:09;;;;;;;1.13;1.03;;;;;;;;;;6188753;23;20174;-86
2022/05/20 01:08:38;;;;;;;0.80;0.80;;;;;;;;;;6157876;23;20186;-86
2022/05/20 01:11:11;;;;;;;1.30;1.30;;;;;;;;;;6158084;23;20175;-86
2022/05/20 01:13:49;;;;;;;1.43;1.33;;;;;;;;;;6157820;23;20178;-86
2022/05/20 01:16:17;;;;;;;1.80;1.70;;;;;;;;;;6157102;23;20202;-86
2022/05/20 01:18:48;;;;;;;2.00;1.90;;;;;;;;;;6157533;23;20186;-87
2022/05/20 01:24:04;;;;;;;1.43;1.43;;;;;;;;;;6162113;23;20201;-87
2022/05/20 01:26:34;;;;;;;3.10;2.53;;;;;;;;;;6162168;23;20173;-87
2022/05/20 01:29:05;;;;;;;4.40;4.03;;;;;;;;;;6162474;23;20177;-87
2022/05/20 01:31:34;;;;;;;2.73;2.53;;;;;;;;;;6162276;23;20181;-87
2022/05/20 01:34:02;;;;;;;6.70;3.30;;;;;;;;;;6162064;23;20191;-87
2022/05/20 01:36:31;;;;;;;3.97;2.37;;;;;;;;;;6162147;23;20200;-86
2022/05/20 01:39:00;;;;;;;1.80;1.73;;;;;;;;;;6161555;23;20173;-87
2022/05/20 01:41:33;;;;;;;2.87;2.50;;;;;;;;;;6161384;23;20180;-86
2022/05/20 01:44:04;;;;;;;2.50;2.30;;;;;;;;;;6161354;23;20177;-86
2022/05/20 01:46:35;;;;;;;1.07;0.70;;;;;;;;;;6161468;23;20183;-87
2022/05/20 01:49:18;;;;;;;1.13;1.13;;;;;;;;;;6161864;23;20208;-87
2022/05/20 01:51:50;;;;;;;1.00;1.00;;;;;;;;;;6161661;23;20182;-87
2022/05/20 01:54:23;;;;;;;3.50;2.50;;;;;;;;;;6161025;23;20263;-86
2022/05/20 01:56:55;;;;;;;8.70;3.87;;;;;;;;;;6161329;23;20196;-86
2022/05/20 01:59:26;;;;;;;10.67;9.57;;;;;;;;;;6161087;23;20188;-86
2022/05/20 02:01:57;;;;;;;20.97;18.83;;;;;;;;;;6160740;23;20180;-86
2022/05/20 02:04:29;;;;;;;22.37;17.70;;;;;;;;;;6161082;23;20196;-86
2022/05/20 02:07:00;;;;;;;20.57;17.80;;;;;;;;;;6192892;23;20203;-87
2022/05/20 02:09:33;;;;;;;5.00;4.57;;;;;;;;;;6186448;23;20184;-86
2022/05/20 02:12:02;;;;;;;0.70;0.70;;;;;;;;;;6186856;23;20201;-87
2022/05/20 02:14:35;;;;;;;1.33;1.30;;;;;;;;;;6186480;23;20208;-87
2022/05/20 02:17:08;;;;;;;2.03;1.93;;;;;;;;;;6186130;23;20192;-86
2022/05/20 02:19:38;;;;;;;0.77;0.77;;;;;;;;;;6186295;23;20185;-86
2022/05/20 02:22:09;;;;;;;1.07;1.07;;;;;;;;;;6186347;23;20176;-86
2022/05/20 02:24:39;;;;;;;15.53;13.07;;;;;;;;;;6188192;23;20182;-87
2022/05/20 02:27:13;;;;;;;33.37;29.00;;;;;;;;;;6186296;23;20176;-86
2022/05/20 02:29:44;;;;;;;26.07;19.37;;;;;;;;;;6186425;23;20249;-87
2022/05/20 02:32:20;;;;;;;15.53;12.93;;;;;;;;;;6186738;23;20179;-86
2022/05/20 02:34:51;;;;;;;16.17;9.43;;;;;;;;;;6187606;23;20202;-87
2022/05/20 02:37:20;;;;;;;21.30;16.43;;;;;;;;;;6186268;23;20270;-86
2022/05/20 02:39:48;;;;;;;0.97;0.97;;;;;;;;;;6186503;23;20180;-86
2022/05/20 02:42:32;;;;;;;18.90;16.30;;;;;;;;;;6186351;23;20606;-86
2022/05/20 02:45:07;;;;;;;16.67;14.90;;;;;;;;;;6186547;23;20199;-87
2022/05/20 02:47:36;;;;;;;11.80;9.27;;;;;;;;;;6187754;23;20174;-86
2022/05/20 02:50:07;;;;;;;3.20;2.90;;;;;;;;;;6187802;23;20172;-87
2022/05/20 02:52:35;;;;;;;10.37;7.63;;;;;;;;;;6186090;23;20180;-87
2022/05/20 02:55:04;;;;;;;24.97;19.33;;;;;;;;;;6187693;23;20176;-87
2022/05/20 02:57:35;;;;;;;26.40;19.70;;;;;;;;;;6186125;23;20204;-87
2022/05/20 03:05:45;;;;;;;1.60;1.57;;;;;;;;;;6185639;23;20203;-87
2022/05/20 03:08:21;;;;;;;3.67;3.33;;;;;;;;;;6186221;23;20212;-87
2022/05/20 03:10:56;;;;;;;3.10;2.87;;;;;;;;;;6185596;23;20177;-87
2022/05/20 03:13:26;;;;;;;2.40;2.30;;;;;;;;;;6186330;23;20266;-87
2022/05/20 03:15:55;;;;;;;1.60;1.57;;;;;;;;;;6187254;23;20219;-87
2022/05/20 03:18:30;;;;;;;0.80;0.80;;;;;;;;;;6187137;23;20167;-87
2022/05/20 03:20:59;;;;;;;0.90;0.90;;;;;;;;;;6185686;23;20182;-87
2022/05/20 03:23:27;;;;;;;0.60;0.60;;;;;;;;;;6185890;23;20176;-87
2022/05/20 03:25:56;;;;;;;5.13;4.17;;;;;;;;;;6185579;23;20181;-87
2022/05/20 03:28:24;;;;;;;17.37;14.43;;;;;;;;;;6186928;23;20187;-87
2022/05/20 03:30:54;;;;;;;19.53;14.23;;;;;;;;;;6185955;23;20184;-87
2022/05/20 03:33:23;;;;;;;4.57;4.23;;;;;;;;;;6186281;23;20181;-86
2022/05/20 03:35:51;;;;;;;7.17;6.43;;;;;;;;;;6186070;23;20227;-87
2022/05/20 03:38:20;;;;;;;5.30;4.77;;;;;;;;;;6187593;23;20215;-87
2022/05/20 03:40:48;;;;;;;2.47;2.37;;;;;;;;;;6186170;23;20188;-87
2022/05/20 03:43:16;;;;;;;2.23;2.10;;;;;;;;;;6185584;23;20184;-87
2022/05/20 03:45:45;;;;;;;4.07;3.77;;;;;;;;;;6185679;23;20202;-87
2022/05/20 03:48:15;;;;;;;1.27;1.27;;;;;;;;;;6185530;23;20493;-87
2022/05/20 03:50:52;;;;;;;5.63;5.10;;;;;;;;;;6185390;23;20188;-87
2022/05/20 03:53:21;;;;;;;4.23;3.93;;;;;;;;;;6186826;23;20183;-87
2022/05/20 03:55:49;;;;;;;3.20;3.00;;;;;;;;;;6185760;23;20179;-87
2022/05/20 03:58:17;;;;;;;15.67;4.43;;;;;;;;;;6185499;23;20200;-87
2022/05/20 04:03:48;;;;;;;1.87;1.77;;;;;;;;;;6187115;23;20187;-87
2022/05/20 04:06:30;;;;;;;2.27;2.00;;;;;;;;;;6178376;23;20290;-87
2022/05/20 04:09:11;;;;;;;7.33;2.67;;;;;;;;;;6191290;23;20263;-87
2022/05/20 04:12:10;;;;;;;0.70;0.70;;;;;;;;;;6190511;23;20175;-87
2022/05/20 04:14:45;;;;;;;1.97;1.93;;;;;;;;;;6189269;23;20175;-87
2022/05/20 04:17:24;;;;;;;0.80;0.80;;;;;;;;;;6190219;23;20192;-87
2022/05/20 04:20:00;;;;;;;2.27;2.17;;;;;;;;;;6216776;23;20181;-87
2022/05/20 04:22:30;;;;;;;1.13;1.13;;;;;;;;;;6190647;23;20198;-86
2022/05/20 04:25:06;;;;;;;1.43;1.43;;;;;;;;;;6216232;23;20250;-87
2022/05/20 04:27:35;;;;;;;2.33;2.23;;;;;;;;;;6190165;23;20171;-87
2022/05/20 04:30:08;;;;;;;3.80;3.50;;;;;;;;;;6190349;23;20176;-86
2022/05/20 04:32:37;;;;;;;2.10;2.00;;;;;;;;;;6190845;23;20175;-87
2022/05/20 04:35:20;;;;;;;3.87;3.67;;;;;;;;;;6190618;23;20176;-87
2022/05/20 04:37:50;;;;;;;39.50;8.50;;;;;;;;;;6190080;23;20195;-87
2022/05/20 04:40:18;;;;;;;1.60;1.50;;;;;;;;;;6190761;23;20185;-87
2022/05/20 04:49:42;;;;;;;7.27;6.33;;;;;;;;;;6125575;23;20189;-86
2022/05/20 04:55:32;;;;;;;3.97;3.77;;;;;;;;;;6126791;23;20176;-87
2022/05/20 04:58:09;;;;;;;0.57;0.57;;;;;;;;;;6130038;23;20198;-87
2022/05/20 05:00:42;;;;;;;2.83;2.73;;;;;;;;;;6129704;23;20209;-87
2022/05/20 05:03:10;;;;;;;2.63;2.43;;;;;;;;;;6129535;23;20230;-87
2022/05/20 05:05:39;;;;;;;1.00;1.00;;;;;;;;;;6130077;23;20257;-87
2022/05/20 05:08:08;;;;;;;3.10;2.90;;;;;;;;;;6129748;23;20210;-86
2022/05/20 05:10:38;;;;;;;0.77;0.77;;;;;;;;;;6129729;23;20183;-87
2022/05/20 05:13:08;;;;;;;0.93;0.93;;;;;;;;;;6129877;23;20206;-87
2022/05/20 05:15:36;;;;;;;0.70;0.70;;;;;;;;;;6130434;23;20182;-86
2022/05/20 05:18:12;;;;;;;10.27;6.80;;;;;;;;;;6135990;23;20253;-87
2022/05/20 05:20:53;;;;;;;4.17;3.97;;;;;;;;;;6190703;23;20177;-87
2022/05/20 05:23:22;;;;;;;1.07;1.07;;;;;;;;;;6190483;23;20203;-87
2022/05/20 05:26:05;;;;;;;8.23;6.20;;;;;;;;;;6190324;23;20260;-87
2022/05/20 05:28:39;;;;;;;2.33;2.23;;;;;;;;;;6217437;23;20172;-87
2022/05/20 05:31:52;;;;;;;16.73;5.70;;;;;;;;;;6218287;23;20181;-87
2022/05/20 05:37:29;;;;;;;4.60;4.20;;;;;;;;;;6183496;23;20187;-85
2022/05/20 05:40:36;;;;;;;4.90;3.87;;;;;;;;;;6124771;23;20181;-86
2022/05/20 05:43:09;;;;;;;2.30;2.10;;;;;;;;;;6192102;23;20172;-87
2022/05/20 05:45:38;;;;;;;6.13;5.63;;;;;;;;;;6193078;23;20177;-87
2022/05/20 05:48:08;;;;;;;1.90;1.83;;;;;;;;;;6192830;23;20177;-86
2022/05/20 05:50:37;;;;;;;3.03;2.83;;;;;;;;;;6192704;23;20259;-86
2022/05/20 05:53:08;;;;;;;16.63;8.17;;;;;;;;;;6194650;23;20203;-85
2022/05/20 05:55:37;;;;;;;8.10;7.10;;;;;;;;;;6196547;23;20269;-84
2022/05/20 05:58:05;;;;;;;33.90;32.20;;;;;;;;;;6195907;23;20280;-84
2022/05/20 06:00:35;;;;;;;11.77;7.60;;;;;;;;;;6196176;23;20209;-84
2022/05/20 06:03:04;;;;;;;4.30;4.00;;;;;;;;;;6198768;23;20246;-84
2022/05/20 06:05:33;;;;;;;1.00;1.00;;;;;;;;;;6202230;23;20177;-83
2022/05/20 06:08:01;;;;;;;4.50;2.93;;;;;;;;;;6227666;23;20206;-84
2022/05/20 06:10:31;;;;;;;5.07;3.50;;;;;;;;;;6203319;23;20181;-84
2022/05/20 06:13:02;;;;;;;10.43;7.90;;;;;;;;;;6202199;23;20178;-83
2022/05/20 06:15:30;;;;;;;2.97;2.73;;;;;;;;;;6229565;23;20259;-84
2022/05/20 06:18:01;;;;;;;6.97;5.97;;;;;;;;;;6204708;23;20353;-84
2022/05/20 06:20:30;;;;;;;4.20;3.80;;;;;;;;;;6203771;23;20206;-84
2022/05/20 06:23:01;;;;;;;8.90;7.37;;;;;;;;;;6202827;23;20174;-85
2022/05/20 06:25:31;;;;;;;7.00;5.13;;;;;;;;;;6204086;23;20179;-84
2022/05/20 06:28:05;;;;;;;13.50;7.60;;;;;;;;;;6203531;23;20197;-84
2022/05/20 06:30:34;;;;;;;10.83;3.53;;;;;;;;;;6203223;23;20178;-84
2022/05/20 06:33:04;;;;;;;6.10;5.13;;;;;;;;;;6203106;23;20199;-84
2022/05/20 06:41:06;;;;;;;12.27;6.87;;;;;;;;;;6197085;23;20276;-87
2022/05/20 06:43:35;;;;;;;3.53;3.23;;;;;;;;;;6193885;23;20175;-87
2022/05/20 06:46:04;;;;;;;2.40;2.07;;;;;;;;;;6193246;23;20175;-86
2022/05/20 06:49:11;;;;;;;9.27;5.33;;;;;;;;;;6193594;23;20266;-86
2022/05/20 06:52:15;;;;;;;0.80;0.80;;;;;;;;;;6190627;23;20175;-86
2022/05/20 06:55:04;;;;;;;1.27;1.23;;;;;;;;;;6192657;23;20258;-87
2022/05/20 06:57:37;;;;;;;3.60;3.20;;;;;;;;;;6193734;23;20176;-86
2022/05/20 07:00:07;;;;;;;5.33;3.00;;;;;;;;;;6192579;23;20198;-86
2022/05/20 07:02:35;;;;;;;5.57;3.80;;;;;;;;;;6217829;23;20174;-86
2022/05/20 07:05:04;;;;;;;4.57;1.63;;;;;;;;;;6192674;23;20194;-86
2022/05/20 07:07:34;;;;;;;3.10;2.77;;;;;;;;;;6189278;23;20212;-86
2022/05/20 07:10:04;;;;;;;8.17;3.73;;;;;;;;;;6192297;23;20194;-85
2022/05/20 07:12:55;;;;;;;5.10;3.23;;;;;;;;;;6190885;23;20174;-86
2022/05/20 07:15:50;;;;;;;2.10;1.87;;;;;;;;;;6214043;23;20179;-85
2022/05/20 07:21:37;;;;;;;1.97;1.73;;;;;;;;;;6079270;23;20212;-86
2022/05/20 07:24:27;;;;;;;1.67;1.57;;;;;;;;;;6186874;23;20182;-86
2022/05/20 07:27:11;;;;;;;1.00;1.00;;;;;;;;;;6181374;23;20186;-85
2022/05/20 07:29:53;;;;;;;3.03;2.73;;;;;;;;;;6187203;23;20178;-83
2022/05/20 07:32:45;;;;;;;3.07;1.20;;;;;;;;;;6187037;23;20181;-85
2022/05/20 07:35:22;;;;;;;2.00;1.80;;;;;;;;;;6183656;23;20285;-84
2022/05/20 07:37:56;;;;;;;2.60;2.50;;;;;;;;;;6184680;23;20179;-85
2022/05/20 07:40:47;;;;;;;;;;;;;;;;;;;;;
2022/05/20 07:46:17;;;;;;;3.00;2.10;;;;;;;;;;6209714;23;20179;-84
2022/05/20 07:49:02;;;;;;;1.20;1.17;;;;;;;;;;6185089;23;20171;-83
2022/05/20 07:51:54;;;;;;;4.03;2.20;;;;;;;;;;6186155;23;20175;-84
2022/05/20 07:54:51;;;;;;;4.93;2.50;;;;;;;;;;6184889;23;20179;-85
2022/05/20 07:57:43;;;;;;;4.97;3.37;;;;;;;;;;6182432;23;20182;-87
2022/05/20 08:01:16;;;;;;;1.60;1.50;;;;;;;;;;6207828;23;20207;-83
2022/05/20 08:10:50;;;;;;;;;;;;;;;;;;;;;
2022/05/20 08:14:24;;;;;;;5.40;4.10;;;;;;;;;;6185941;23;20185;-84
2022/05/20 08:20:35;;;;;;;4.23;2.63;;;;;;;;;;6191795;23;20194;-86
2022/05/20 08:23:51;;;;;;;;;;;;;;;;;;;;;
2022/05/20 08:26:50;;;;;;;4.53;3.50;;;;;;;;;;6146022;23;20186;-86
2022/05/20 08:44:31;;;;;;;6.40;4.23;;;;;;;;;;5966812;24;20186;-86
2022/05/20 08:47:22;;;;;;;4.03;3.13;;;;;;;;;;6007580;23;20181;-85
2022/05/20 08:54:36;;;;;;;6.80;5.27;;;;;;;;;;5924233;24;20188;-84
2022/05/20 09:01:19;;;;;;;6.77;5.40;;;;;;;;;;5821666;24;20271;-85
2022/05/20 09:04:22;;;;;;;7.50;5.40;;;;;;;;;;5977208;23;20200;-87
2022/05/20 09:12:08;;;;;;;4.33;2.27;;;;;;;;;;6031796;23;20178;-84
2022/05/20 09:15:48;;;;;;;6.13;4.17;;;;;;;;;;5983013;24;20186;-86
2022/05/20 09:19:27;;;;;;;5.87;4.50;;;;;;;;;;5929616;23;20181;-87
2022/05/20 09:32:34;;;;;;;4.67;3.77;;;;;;;;;;6126807;23;20298;-86
2022/05/20 09:39:04;;;;;;;3.07;2.73;;;;;;;;;;5943190;23;20196;-82
2022/05/20 09:42:16;;;;;;;4.33;2.97;;;;;;;;;;6040942;23;20189;-84
2022/05/20 09:45:20;;;;;;;4.33;3.93;;;;;;;;;;6044440;23;20189;-85
2022/05/20 09:55:08;;;;;;;2.00;1.73;;;;;;;;;;6047397;23;20183;-86
2022/05/20 09:58:20;;;;;;;11.27;7.43;;;;;;;;;;5961951;24;20188;-85
2022/05/20 10:05:47;;;;;;;7.03;5.20;;;;;;;;;;5982217;23;20212;-87
2022/05/20 10:08:50;;;;;;;2.33;2.13;;;;;;;;;;6042923;23;20241;-86
2022/05/20 10:12:28;;;;;;;5.07;3.50;;;;;;;;;;6038535;23;20314;-86
2022/05/20 10:25:46;;;;;;;6.43;3.50;;;;;;;;;;5781203;24;20189;-84
2022/05/20 10:40:14;;;;;;;7.83;2.67;;;;;;;;;;6026360;23;20213;-85
2022/05/20 10:57:24;;;;;;;;;;;;;;;;;;;;;
2022/05/20 11:00:56;;;;;;;;;;;;;;;;;;;;;
2022/05/20 11:25:14;;;;;;;9.67;6.40;;;;;;;;;;6145765;23;20174;-86
2022/05/20 11:36:34;;;;;;;;;;;;;;;;;;;;;
2022/05/20 11:40:06;;;;;;;6.83;6.23;;;;;;;;;;6019130;23;20186;-84
2022/05/20 11:47:30;;;;;;;;;;;;;;;;;;;;;
2022/05/20 11:50:22;;;;;;;9.13;5.53;;;;;;;;;;6009089;23;20242;-84
2022/05/20 11:53:27;;;;;;;4.50;2.83;;;;;;;;;;6146045;23;20219;-86
2022/05/20 11:59:32;;;;;;;2.53;2.33;;;;;;;;;;6189485;23;20173;-86
2022/05/20 12:02:42;;;;;;;3.27;2.93;;;;;;;;;;6188358;23;20179;-86
2022/05/20 12:05:51;;;;;;;;;;;;;;;;;;;;;
2022/05/20 12:08:52;;;;;;;3.30;3.03;;;;;;;;;;6158330;23;20181;-86
2022/05/20 12:11:54;;;;;;;1.47;1.13;;;;;;;;;;6186705;23;20172;-86
2022/05/20 12:15:10;;;;;;;6.03;4.90;;;;;;;;;;6154420;23;20255;-85
2022/05/20 12:25:07;;;;;;;8.67;4.83;;;;;;;;;;6178204;23;20238;-85
2022/05/20 12:28:16;;;;;;;12.77;4.63;;;;;;;;;;6158708;23;20266;-85
2022/05/20 12:31:20;;;;;;;1.63;1.53;;;;;;;;;;6119118;23;20172;-87
2022/05/20 12:38:24;;;;;;;7.53;5.47;;;;;;;;;;6042070;23;20188;-86
2022/05/20 12:41:04;;;;;;;5.10;2.47;;;;;;;;;;6070110;23;20212;-86
2022/05/20 12:43:57;;;;;;;2.97;2.57;;;;;;;;;;6070209;23;20252;-85
2022/05/20 12:46:57;;;;;;;11.83;6.97;;;;;;;;;;6070358;23;20185;-83
2022/05/20 12:49:27;;;;;;;6.27;5.80;;;;;;;;;;6070506;23;20177;-83
2022/05/20 12:52:05;;;;;;;1.30;1.03;;;;;;;;;;6097003;23;20178;-84
2022/05/20 12:54:39;;;;;;;4.33;3.43;;;;;;;;;;6159028;23;20178;-85
2022/05/20 12:57:11;;;;;;;13.83;8.97;;;;;;;;;;6159538;23;20177;-84
2022/05/20 12:59:40;;;;;;;8.67;6.00;;;;;;;;;;6159459;23;20255;-84
2022/05/20 13:02:11;;;;;;;6.60;6.03;;;;;;;;;;6159669;23;20255;-83
2022/05/20 13:04:46;;;;;;;2.63;2.43;;;;;;;;;;6159464;23;20202;-85
2022/05/20 13:07:19;;;;;;;2.50;2.30;;;;;;;;;;6183598;23;20175;-84
2022/05/20 13:09:49;;;;;;;5.03;4.43;;;;;;;;;;6159059;23;20179;-84
2022/05/20 13:12:23;;;;;;;7.23;6.50;;;;;;;;;;6186676;23;20179;-86
2022/05/20 13:15:09;;;;;;;14.13;9.40;;;;;;;;;;6161746;23;20175;-84
2022/05/20 13:17:56;;;;;;;15.33;12.97;;;;;;;;;;6161829;23;20199;-85
2022/05/20 13:20:53;;;;;;;11.47;10.37;;;;;;;;;;6161228;23;20280;-84
2022/05/20 13:23:30;;;;;;;4.20;3.83;;;;;;;;;;6160828;23;20210;-83
2022/05/20 13:26:01;;;;;;;18.00;10.43;;;;;;;;;;6161016;23;20183;-84
2022/05/20 13:28:33;;;;;;;13.27;8.90;;;;;;;;;;6161607;23;20185;-85
2022/05/20 13:31:13;;;;;;;16.10;13.43;;;;;;;;;;6161372;23;20205;-85
2022/05/20 13:33:47;;;;;;;24.90;11.20;;;;;;;;;;6161287;23;20178;-85
2022/05/20 13:36:24;;;;;;;0.30;0.30;;;;;;;;;;6161586;23;20185;-84
2022/05/20 13:38:56;;;;;;;0.30;0.30;;;;;;;;;;6159923;23;20178;-85
2022/05/20 13:41:32;;;;;;;0.33;0.33;;;;;;;;;;6158532;23;20205;-85
2022/05/20 13:44:09;;;;;;;0.70;0.70;;;;;;;;;;6158492;23;20182;-84
2022/05/20 13:49:41;;;;;;;0.30;0.30;;;;;;;;;;6160338;23;20178;-83
2022/05/20 13:52:10;;;;;;;0.30;0.30;;;;;;;;;;6160643;23;20212;-81
2022/05/20 13:54:41;;;;;;;0.30;0.30;;;;;;;;;;6158787;23;20209;-84
2022/05/20 13:57:21;;;;;;;0.40;0.40;;;;;;;;;;6159351;23;20175;-84
2022/05/20 13:59:53;;;;;;;0.40;0.40;;;;;;;;;;6158526;23;20265;-84
2022/05/20 14:02:36;;;;;;;0.40;0.40;;;;;;;;;;6159353;23;20205;-86
2022/05/20 14:05:16;;;;;;;0.40;0.40;;;;;;;;;;6159805;23;20229;-85
2022/05/20 14:07:51;;;;;;;0.40;0.40;;;;;;;;;;6158836;23;20187;-84
2022/05/20 14:10:32;;;;;;;0.40;0.40;;;;;;;;;;6159163;23;20181;-83
2022/05/20 14:13:06;;;;;;;0.40;0.40;;;;;;;;;;6159536;23;20257;-84
2022/05/20 14:15:45;;;;;;;0.40;0.40;;;;;;;;;;6185267;23;20178;-84
2022/05/20 14:18:26;;;;;;;0.33;0.33;;;;;;;;;;6135282;23;20232;-84
2022/05/20 14:21:19;;;;;;;0.40;0.40;;;;;;;;;;6157882;23;20196;-85
2022/05/20 14:26:56;;;;;;;0.40;0.40;;;;;;;;;;6158573;23;20193;-85
2022/05/20 14:32:51;;;;;;;0.40;0.40;;;;;;;;;;6152339;23;20203;-85
2022/05/20 14:35:33;;;;;;;0.40;0.40;;;;;;;;;;6157984;23;20199;-84
2022/05/20 14:38:09;;;;;;;0.43;0.43;;;;;;;;;;6159534;23;20185;-85
2022/05/20 14:43:32;;;;;;;0.40;0.40;;;;;;;;;;6154177;23;20247;-84
2022/05/20 14:46:05;;;;;;;0.40;0.40;;;;;;;;;;6157592;23;20213;-83
2022/05/20 14:48:41;;;;;;;0.40;0.40;;;;;;;;;;6157378;23;20188;-83
2022/05/20 14:51:32;;;;;;;0.40;0.40;;;;;;;;;;6157245;23;20287;-82
2022/05/20 14:54:03;;;;;;;0.40;0.40;;;;;;;;;;6158090;23;20185;-83
2022/05/20 14:56:38;;;;;;;0.40;0.40;;;;;;;;;;6157836;23;20182;-84
2022/05/20 14:59:10;;;;;;;0.40;0.40;;;;;;;;;;6156569;23;20189;-84
2022/05/20 15:01:47;;;;;;;0.40;0.40;;;;;;;;;;6156999;23;20277;-82
2022/05/20 15:04:21;;;;;;;0.40;0.40;;;;;;;;;;6156909;23;20206;-83
2022/05/20 15:06:49;;;;;;;0.40;0.40;;;;;;;;;;6156524;23;20185;-81
2022/05/20 15:09:22;;;;;;;0.40;0.40;;;;;;;;;;6156070;23;20276;-83
2022/05/20 15:11:52;;;;;;;0.40;0.40;;;;;;;;;;6157989;23;20236;-84
2022/05/20 15:14:23;;;;;;;0.30;0.30;;;;;;;;;;6157316;23;20181;-83
2022/05/20 15:16:57;;;;;;;0.40;0.40;;;;;;;;;;6157525;23;20187;-82
2022/05/20 15:19:32;;;;;;;0.40;0.40;;;;;;;;;;6158862;23;20177;-84
2022/05/20 15:22:03;;;;;;;0.40;0.40;;;;;;;;;;6159074;23;20210;-83
2022/05/20 15:24:33;;;;;;;0.40;0.40;;;;;;;;;;6159458;23;20271;-85
2022/05/20 15:27:22;;;;;;;0.40;0.40;;;;;;;;;;6157174;23;20204;-84
2022/05/20 15:29:51;;;;;;;0.40;0.40;;;;;;;;;;6156998;23;20201;-83
2022/05/20 15:35:08;;;;;;;0.30;0.30;;;;;;;;;;6156768;23;20185;-83
2022/05/20 15:37:40;;;;;;;0.40;0.40;;;;;;;;;;6182214;23;20182;-83
2022/05/20 15:40:13;;;;;;;0.37;0.37;;;;;;;;;;6183030;23;20209;-83
2022/05/20 15:42:42;;;;;;;0.43;0.43;;;;;;;;;;6156289;23;20266;-83
2022/05/20 15:45:13;;;;;;;0.30;0.30;;;;;;;;;;6156819;23;20177;-83
2022/05/20 15:47:41;;;;;;;0.30;0.30;;;;;;;;;;6182994;23;20178;-83
2022/05/20 15:50:14;;;;;;;0.83;0.83;;;;;;;;;;6156584;23;20182;-83
2022/05/20 15:52:47;;;;;;;0.40;0.40;;;;;;;;;;6157822;23;20175;-83
2022/05/20 15:55:20;;;;;;;0.53;0.53;;;;;;;;;;6159557;23;20177;-83
2022/05/20 15:57:48;;;;;;;0.40;0.40;;;;;;;;;;6185525;23;20174;-84
2022/05/20 16:00:18;;;;;;;0.43;0.43;;;;;;;;;;6185190;23;20181;-85
2022/05/20 16:02:48;;;;;;;0.40;0.40;;;;;;;;;;6157793;23;20261;-82
2022/05/20 16:05:22;;;;;;;0.40;0.40;;;;;;;;;;6154745;23;20200;-84
2022/05/20 16:07:51;;;;;;;0.40;0.40;;;;;;;;;;6184011;23;20222;-84
2022/05/20 16:10:22;;;;;;;0.40;0.40;;;;;;;;;;6158775;23;20177;-84
2022/05/20 16:12:52;;;;;;;0.40;0.40;;;;;;;;;;6185241;23;20211;-84
2022/05/20 16:15:21;;;;;;;0.40;0.40;;;;;;;;;;6159208;23;20172;-86
2022/05/20 16:17:49;;;;;;;0.40;0.40;;;;;;;;;;6159584;23;20177;-85
2022/05/20 16:20:19;;;;;;;0.43;0.43;;;;;;;;;;6159572;23;20216;-86
2022/05/20 16:22:48;;;;;;;0.50;0.50;;;;;;;;;;6159416;23;20213;-86
2022/05/20 16:25:17;;;;;;;0.43;0.43;;;;;;;;;;6160346;23;20208;-87
2022/05/20 16:27:46;;;;;;;0.40;0.40;;;;;;;;;;6184953;23;20177;-86
2022/05/20 16:30:16;;;;;;;0.40;0.40;;;;;;;;;;6160167;23;20186;-87
2022/05/20 16:32:44;;;;;;;0.40;0.40;;;;;;;;;;6159489;23;20179;-87
2022/05/20 16:35:13;;;;;;;0.40;0.40;;;;;;;;;;6185862;23;20169;-87
2022/05/20 16:37:44;;;;;;;0.40;0.40;;;;;;;;;;6159387;23;20242;-88
2022/05/20 16:40:13;;;;;;;0.40;0.40;;;;;;;;;;6160052;23;20229;-88
2022/05/20 16:42:42;;;;;;;0.50;0.50;;;;;;;;;;6159597;23;20191;-88
2022/05/20 16:45:11;;;;;;;0.50;0.50;;;;;;;;;;6159465;23;20176;-89
2022/05/20 16:47:42;;;;;;;0.40;0.40;;;;;;;;;;6184430;23;20183;-88
2022/05/20 16:50:11;;;;;;;0.40;0.40;;;;;;;;;;6159644;23;20259;-89
2022/05/20 16:52:40;;;;;;;0.50;0.50;;;;;;;;;;6160294;23;20179;-90
2022/05/20 16:55:12;;;;;;;0.50;0.50;;;;;;;;;;6160085;23;20183;-89
2022/05/20 17:03:14;;;;;;;0.40;0.40;;;;;;;;;;6159962;23;20199;-92
2022/05/20 17:05:43;;;;;;;0.40;0.40;;;;;;;;;;6185207;23;20265;-91
2022/05/20 17:08:12;;;;;;;0.50;0.50;;;;;;;;;;6185348;23;20179;-91
2022/05/20 17:10:42;;;;;;;0.50;0.50;;;;;;;;;;6185015;23;20189;-92
2022/05/20 17:13:12;;;;;;;0.50;0.50;;;;;;;;;;6161783;23;20172;-92
2022/05/20 17:15:41;;;;;;;0.50;0.50;;;;;;;;;;6160886;23;20171;-92
2022/05/20 17:18:09;;;;;;;0.50;0.50;;;;;;;;;;6161151;23;20175;-92
2022/05/20 17:20:38;;;;;;;0.50;0.50;;;;;;;;;;6187081;23;20172;-92
2022/05/20 17:25:58;;;;;;;0.40;0.40;;;;;;;;;;6161954;23;20178;-91
2022/05/20 17:28:27;;;;;;;0.40;0.40;;;;;;;;;;6162083;23;20181;-89
2022/05/20 17:30:55;;;;;;;0.40;0.40;;;;;;;;;;6161527;23;20189;-88
2022/05/20 17:33:24;;;;;;;0.50;0.50;;;;;;;;;;6161337;23;20167;-88
2022/05/20 17:35:54;;;;;;;0.40;0.40;;;;;;;;;;6187497;23;20175;-89
2022/05/20 17:38:22;;;;;;;0.50;0.50;;;;;;;;;;6187639;23;20183;-88
2022/05/20 17:40:51;;;;;;;0.50;0.50;;;;;;;;;;6187987;23;20171;-89
2022/05/20 17:43:20;;;;;;;0.50;0.50;;;;;;;;;;6161393;23;20199;-89
2022/05/20 17:45:49;;;;;;;0.40;0.40;;;;;;;;;;6161178;23;20175;-88
2022/05/20 17:48:17;;;;;;;0.40;0.40;;;;;;;;;;6187522;23;20167;-90
2022/05/20 17:50:46;;;;;;;0.40;0.40;;;;;;;;;;6185962;23;20197;-90
2022/05/20 17:53:14;;;;;;;0.43;0.43;;;;;;;;;;6161041;23;20203;-91
2022/05/20 17:55:43;;;;;;;0.33;0.33;;;;;;;;;;6161445;23;20247;-91
2022/05/20 17:58:11;;;;;;;0.40;0.40;;;;;;;;;;6161046;23;20179;-91
2022/05/20 18:00:41;;;;;;;0.50;0.50;;;;;;;;;;6161359;23;20235;-90
2022/05/20 18:03:10;;;;;;;0.43;0.43;;;;;;;;;;6160820;23;20202;-93
2022/05/20 18:05:39;;;;;;;0.50;0.50;;;;;;;;;;6161430;23;20175;-92
2022/05/20 18:08:08;;;;;;;0.50;0.50;;;;;;;;;;6187737;23;20171;-91
2022/05/20 18:10:36;;;;;;;0.50;0.50;;;;;;;;;;6187993;23;20178;-92
2022/05/20 18:13:05;;;;;;;0.40;0.40;;;;;;;;;;6161701;23;20182;-91
2022/05/20 18:15:34;;;;;;;0.50;0.50;;;;;;;;;;6188549;23;20171;-92
2022/05/20 18:18:05;;;;;;;0.40;0.40;;;;;;;;;;6162869;23;20179;-92
2022/05/20 18:20:33;;;;;;;0.40;0.40;;;;;;;;;;6163947;23;20230;-92
2022/05/20 18:23:03;;;;;;;0.40;0.40;;;;;;;;;;6191427;23;20285;-93
2022/05/20 18:25:31;;;;;;;0.40;0.40;;;;;;;;;;6193536;23;20171;-92
2022/05/20 18:28:00;;;;;;;0.40;0.40;;;;;;;;;;6194421;23;20246;-92
2022/05/20 18:30:31;;;;;;;0.47;0.47;;;;;;;;;;6166677;23;20184;-89
2022/05/20 18:33:00;;;;;;;0.40;0.40;;;;;;;;;;6192700;23;20175;-91
2022/05/20 18:41:02;;;;;;;8.30;2.67;;;;;;;;;;6187383;23;20198;-93
2022/05/20 18:43:31;;;;;;;1.87;1.53;;;;;;;;;;6187158;23;20247;-93
2022/05/20 18:45:59;;;;;;;10.20;3.40;;;;;;;;;;6161091;23;20186;-92
2022/05/20 18:48:28;;;;;;;4.30;3.40;;;;;;;;;;6185990;23;20180;-93
2022/05/20 18:50:58;;;;;;;4.57;3.97;;;;;;;;;;6161419;23;20175;-92
2022/05/20 18:53:27;;;;;;;3.83;2.60;;;;;;;;;;6160944;23;20171;-92
2022/05/20 18:55:55;;;;;;;0.50;0.50;;;;;;;;;;6186803;23;20168;-91
2022/05/20 18:58:24;;;;;;;4.63;2.87;;;;;;;;;;6160760;23;20179;-93
2022/05/20 19:00:53;;;;;;;9.10;2.50;;;;;;;;;;6160726;23;20186;-91
2022/05/20 19:06:09;;;;;;;7.23;2.97;;;;;;;;;;6160569;23;20178;-93
2022/05/20 19:08:38;;;;;;;4.83;2.03;;;;;;;;;;6186947;23;20175;-91
2022/05/20 19:11:08;;;;;;;1.53;1.40;;;;;;;;;;6160628;23;20175;-92
2022/05/20 19:13:36;;;;;;;9.47;3.30;;;;;;;;;;6160763;23;20170;-91
2022/05/20 19:16:05;;;;;;;2.13;2.00;;;;;;;;;;6160660;23;20206;-91
2022/05/20 19:18:33;;;;;;;9.93;5.13;;;;;;;;;;6186832;23;20209;-92
2022/05/20 19:21:04;;;;;;;2.93;2.63;;;;;;;;;;6160799;23;20179;-91